Time;durP1;ratioP1;P1;durP2;ratioP2;P2;SDS_P1;SDS_P2;PMS_P1;PMS_P2;Temp;Humidity;BMP_temperature;BMP_pressure;BME280_temperature;BME280_humidity;BME280_pressure;Samples;Min_cycle;Max_cycle;Signal;HPM_P1;HPM_P2
2022/04/27 00:01:41;;;;;;;0.30;0.30;;;13.00;93.50;;;;;;4416117;32;20090;-68
2022/04/27 00:04:06;;;;;;;0.32;0.32;;;12.90;94.40;;;;;;4422717;32;20062;-68
2022/04/27 00:06:32;;;;;;;0.22;0.22;;;12.70;94.40;;;;;;4425230;32;20545;-68
2022/04/27 00:08:57;;;;;;;0.70;0.70;;;12.70;93.90;;;;;;4419551;32;20225;-69
2022/04/27 00:11:23;;;;;;;0.40;0.40;;;12.90;93.90;;;;;;4423466;32;20081;-68
2022/04/27 00:13:49;;;;;;;0.30;0.30;;;12.70;94.30;;;;;;4417363;32;20086;-68
2022/04/27 00:16:15;;;;;;;0.32;0.32;;;12.50;94.80;;;;;;4426842;32;20097;-68
2022/04/27 00:18:40;;;;;;;0.40;0.40;;;12.50;95.30;;;;;;4423685;32;20116;-68
2022/04/27 00:21:06;;;;;;;0.25;0.25;;;12.40;94.90;;;;;;4407948;32;20089;-68
2022/04/27 00:23:33;;;;;;;0.30;0.30;;;12.40;95.30;;;;;;4418117;32;20062;-68
2022/04/27 00:25:59;;;;;;;2.17;0.50;;;12.40;95.30;;;;;;4425306;32;20114;-68
2022/04/27 00:28:24;;;;;;;0.30;0.30;;;12.30;96.20;;;;;;4425555;32;20068;-68
2022/04/27 00:30:50;;;;;;;0.43;0.43;;;12.20;96.30;;;;;;4425951;32;20127;-67
2022/04/27 00:33:15;;;;;;;3.30;0.50;;;12.10;96.30;;;;;;4425563;32;20069;-67
2022/04/27 00:35:41;;;;;;;0.65;0.60;;;12.00;97.00;;;;;;4422717;32;20073;-68
2022/04/27 00:38:07;;;;;;;0.85;0.52;;;11.80;97.30;;;;;;4421874;32;20386;-68
2022/04/27 00:40:33;;;;;;;2.20;0.43;;;11.80;97.60;;;;;;4426188;32;20064;-67
2022/04/27 00:42:58;;;;;;;1.23;0.85;;;11.70;98.00;;;;;;4418968;32;20708;-68
2022/04/27 00:45:24;;;;;;;0.40;0.30;;;11.60;98.30;;;;;;4423683;32;20542;-68
2022/04/27 00:47:49;;;;;;;9.13;1.05;;;11.60;98.40;;;;;;4422524;32;20062;-68
2022/04/27 00:50:15;;;;;;;0.40;0.40;;;11.60;98.40;;;;;;4408455;32;20089;-68
2022/04/27 00:52:41;;;;;;;0.25;0.25;;;11.50;98.30;;;;;;4417753;32;20103;-68
2022/04/27 00:55:07;;;;;;;0.30;0.30;;;11.50;98.80;;;;;;4425974;32;20090;-67
2022/04/27 00:57:34;;;;;;;0.30;0.30;;;11.50;99.30;;;;;;4424689;32;20552;-68
2022/04/27 00:59:59;;;;;;;0.28;0.28;;;11.50;99.00;;;;;;4425265;32;20076;-68
2022/04/27 01:02:25;;;;;;;0.40;0.40;;;11.30;99.40;;;;;;4423397;32;20529;-68
2022/04/27 01:04:51;;;;;;;0.57;0.57;;;11.10;99.90;;;;;;4420753;32;20120;-68
2022/04/27 01:07:17;;;;;;;0.30;0.30;;;11.00;99.90;;;;;;4420627;32;20073;-67
2022/04/27 01:09:42;;;;;;;0.30;0.30;;;10.90;99.90;;;;;;4425398;32;20144;-69
2022/04/27 01:12:08;;;;;;;0.30;0.30;;;10.90;99.90;;;;;;4425485;32;20113;-68
2022/04/27 01:14:43;;;;;;;0.43;0.43;;;10.90;99.90;;;;;;4418500;32;20153;-68
2022/04/27 01:17:08;;;;;;;0.50;0.50;;;10.90;99.90;;;;;;4422507;32;20156;-68
2022/04/27 01:19:34;;;;;;;0.88;0.60;;;10.80;99.90;;;;;;4414272;32;20205;-68
2022/04/27 01:22:00;;;;;;;0.62;0.52;;;10.70;99.90;;;;;;4410362;32;20077;-68
2022/04/27 01:24:25;;;;;;;1.73;0.82;;;10.80;99.90;;;;;;4424741;32;20089;-68
2022/04/27 01:26:52;;;;;;;1.23;0.80;;;11.00;99.90;;;;;;4424633;32;20069;-68
2022/04/27 01:29:19;;;;;;;1.58;0.95;;;11.10;99.90;;;;;;4426194;32;20080;-68
2022/04/27 01:31:45;;;;;;;4.22;1.12;;;11.00;99.90;;;;;;4425429;32;20069;-68
2022/04/27 01:34:12;;;;;;;0.30;0.30;;;10.90;99.90;;;;;;4425729;32;20454;-68
2022/04/27 01:36:38;;;;;;;0.65;0.55;;;10.90;99.90;;;;;;4422427;32;20085;-68
2022/04/27 01:39:04;;;;;;;0.40;0.40;;;10.90;99.90;;;;;;4418201;32;20061;-68
2022/04/27 01:41:29;;;;;;;0.47;0.47;;;10.90;99.90;;;;;;4422689;32;20141;-68
2022/04/27 01:43:55;;;;;;;0.40;0.40;;;10.80;99.90;;;;;;4420997;32;20093;-68
2022/04/27 01:46:20;;;;;;;1.37;1.20;;;10.80;99.90;;;;;;4420676;32;20847;-68
2022/04/27 01:48:46;;;;;;;25.58;0.75;;;10.80;99.90;;;;;;4423331;32;20139;-68
2022/04/27 01:51:11;;;;;;;0.40;0.40;;;10.90;99.90;;;;;;4409399;32;20065;-68
2022/04/27 01:54:37;;;;;;;0.70;0.70;;;10.70;99.90;;;;;;4417529;32;20074;-67
2022/04/27 01:56:23;;;;;;;0.40;0.40;;;10.60;99.90;;;;;;4423947;32;20061;-68
2022/04/27 01:58:49;;;;;;;0.30;0.30;;;10.50;99.90;;;;;;4425972;32;20068;-68
2022/04/27 02:01:14;;;;;;;0.35;0.35;;;10.40;99.90;;;;;;4422860;32;20081;-68
2022/04/27 02:03:40;;;;;;;1.80;0.68;;;10.30;99.90;;;;;;4425259;32;20093;-68
2022/04/27 02:06:06;;;;;;;0.65;0.52;;;10.30;99.90;;;;;;4417636;32;20081;-67
2022/04/27 02:08:32;;;;;;;0.37;0.37;;;10.20;99.90;;;;;;4417221;32;20196;-68
2022/04/27 02:10:57;;;;;;;0.30;0.30;;;10.10;99.90;;;;;;4421897;32;20094;-68
2022/04/27 02:13:25;;;;;;;0.37;0.37;;;10.10;99.90;;;;;;4422032;32;20085;-68
2022/04/27 02:15:51;;;;;;;0.32;0.32;;;10.00;99.90;;;;;;4422073;32;20081;-68
2022/04/27 02:18:18;;;;;;;0.30;0.30;;;10.10;99.90;;;;;;4426913;32;20061;-69
2022/04/27 02:20:43;;;;;;;0.57;0.32;;;10.10;99.90;;;;;;4412567;32;20947;-68
2022/04/27 02:23:08;;;;;;;0.30;0.30;;;10.10;99.90;;;;;;4418359;32;20093;-67
2022/04/27 02:25:34;;;;;;;0.45;0.45;;;10.00;99.90;;;;;;4425359;32;20069;-67
2022/04/27 02:27:59;;;;;;;0.30;0.30;;;10.00;99.90;;;;;;4426889;32;20102;-67
2022/04/27 02:30:25;;;;;;;1.73;1.10;;;10.00;99.90;;;;;;4428460;32;20557;-67
2022/04/27 02:32:51;;;;;;;0.60;0.40;;;10.10;99.90;;;;;;4428707;32;20489;-67
2022/04/27 02:35:18;;;;;;;0.40;0.40;;;10.20;99.90;;;;;;4424873;32;20901;-67
2022/04/27 02:37:43;;;;;;;0.50;0.50;;;10.20;99.90;;;;;;4424689;32;20093;-67
2022/04/27 02:40:09;;;;;;;0.73;0.73;;;10.20;99.90;;;;;;4428003;32;20065;-68
2022/04/27 02:42:35;;;;;;;0.50;0.50;;;10.10;99.90;;;;;;4425098;32;20065;-67
2022/04/27 02:45:00;;;;;;;0.45;0.45;;;10.00;99.90;;;;;;4423558;32;20507;-67
2022/04/27 02:47:26;;;;;;;0.40;0.40;;;10.10;99.90;;;;;;4429909;32;20061;-67
2022/04/27 02:51:53;;;;;;;0.47;0.47;;;10.20;99.90;;;;;;4418439;32;20077;-67
2022/04/27 02:52:37;;;;;;;0.45;0.45;;;10.40;99.90;;;;;;4416434;32;20073;-67
2022/04/27 02:55:03;;;;;;;0.70;0.62;;;10.20;99.90;;;;;;4428656;32;20077;-67
2022/04/27 02:57:28;;;;;;;0.70;0.70;;;10.30;99.90;;;;;;4429306;32;20442;-68
2022/04/27 02:59:54;;;;;;;2.92;0.73;;;10.30;99.90;;;;;;4428793;32;20070;-68
2022/04/27 03:02:19;;;;;;;0.47;0.47;;;10.30;99.90;;;;;;4428889;32;20424;-67
2022/04/27 03:04:45;;;;;;;0.28;0.28;;;10.30;99.90;;;;;;4427035;32;20073;-68
2022/04/27 03:07:10;;;;;;;0.30;0.30;;;10.40;99.90;;;;;;4419736;32;20089;-68
2022/04/27 03:09:36;;;;;;;0.60;0.60;;;10.40;99.90;;;;;;4427777;32;20123;-68
2022/04/27 03:12:02;;;;;;;0.90;0.90;;;10.40;99.90;;;;;;4429014;32;20065;-68
2022/04/27 03:14:28;;;;;;;1.35;0.65;;;10.30;99.90;;;;;;4426130;32;20069;-67
2022/04/27 03:16:55;;;;;;;2.70;0.68;;;10.30;99.90;;;;;;4425472;32;20131;-68
2022/04/27 03:19:20;;;;;;;0.40;0.40;;;10.40;99.90;;;;;;4424303;32;20342;-67
2022/04/27 03:21:46;;;;;;;2.78;1.25;;;10.30;99.90;;;;;;4418237;32;20129;-67
2022/04/27 03:24:11;;;;;;;0.40;0.40;;;10.30;99.90;;;;;;4422744;32;20088;-67
2022/04/27 03:26:37;;;;;;;0.50;0.50;;;10.30;99.90;;;;;;4429672;32;20061;-67
2022/04/27 03:29:03;;;;;;;0.73;0.50;;;10.20;99.90;;;;;;4427826;32;20123;-67
2022/04/27 03:31:29;;;;;;;1.15;0.50;;;10.10;99.90;;;;;;4430450;32;20549;-67
2022/04/27 03:33:54;;;;;;;0.20;0.20;;;10.00;99.90;;;;;;4429156;32;20068;-67
2022/04/27 03:36:20;;;;;;;0.60;0.60;;;9.90;99.90;;;;;;4423430;32;20140;-67
2022/04/27 03:38:48;;;;;;;0.50;0.50;;;9.80;99.90;;;;;;4423929;32;20061;-67
2022/04/27 03:41:17;;;;;;;0.75;0.65;;;9.60;99.90;;;;;;4427323;32;20074;-68
2022/04/27 03:43:44;;;;;;;8.80;0.40;;;9.60;99.90;;;;;;4423656;32;20125;-68
2022/04/27 03:46:09;;;;;;;0.35;0.35;;;9.60;99.90;;;;;;4428147;32;20201;-67
2022/04/27 03:48:35;;;;;;;0.60;0.60;;;9.60;99.90;;;;;;4426691;32;20058;-67
2022/04/27 03:51:00;;;;;;;0.32;0.32;;;9.60;99.90;;;;;;4412401;32;20439;-67
2022/04/27 03:53:26;;;;;;;0.50;0.50;;;9.50;99.90;;;;;;4422149;32;20081;-67
2022/04/27 03:55:52;;;;;;;0.47;0.47;;;9.60;99.90;;;;;;4417661;32;20061;-67
2022/04/27 03:58:19;;;;;;;1.45;0.80;;;9.70;99.90;;;;;;4428765;32;20128;-67
2022/04/27 04:00:44;;;;;;;3.83;0.88;;;9.80;99.90;;;;;;4428430;32;20466;-67
2022/04/27 04:03:11;;;;;;;0.30;0.30;;;9.90;99.90;;;;;;4429593;32;20388;-69
2022/04/27 04:05:37;;;;;;;0.50;0.50;;;9.80;99.90;;;;;;4422812;32;20549;-67
2022/04/27 04:08:03;;;;;;;0.43;0.43;;;9.70;99.90;;;;;;4422437;32;20086;-68
2022/04/27 04:10:29;;;;;;;1.08;0.75;;;9.70;99.90;;;;;;4426573;32;20101;-68
2022/04/27 04:12:54;;;;;;;0.52;0.52;;;9.60;99.90;;;;;;4425172;32;20108;-68
2022/04/27 04:15:20;;;;;;;0.30;0.30;;;9.60;99.90;;;;;;4424916;32;20077;-67
2022/04/27 04:17:45;;;;;;;0.65;0.65;;;9.60;99.90;;;;;;4427149;32;20525;-68
2022/04/27 04:20:14;;;;;;;5.72;1.30;;;9.60;99.90;;;;;;4416944;32;20124;-69
2022/04/27 04:22:40;;;;;;;4.82;2.08;;;9.70;99.90;;;;;;4389407;32;20487;-68
2022/04/27 04:28:52;;;;;;;1.67;0.73;;;9.60;99.90;;;;;;4396290;32;20769;-68
2022/04/27 04:30:38;;;;;;;1.17;0.50;;;9.60;99.90;;;;;;4401793;32;20469;-68
2022/04/27 04:33:03;;;;;;;8.85;1.37;;;9.70;99.90;;;;;;4424558;32;20086;-68
2022/04/27 04:35:29;;;;;;;0.60;0.60;;;9.60;99.90;;;;;;4423397;32;20085;-68
2022/04/27 04:37:55;;;;;;;0.40;0.40;;;9.50;99.90;;;;;;4416604;32;20077;-69
2022/04/27 04:40:21;;;;;;;0.40;0.40;;;9.60;99.90;;;;;;4420370;32;20186;-68
2022/04/27 04:42:46;;;;;;;20.17;4.55;;;9.70;99.90;;;;;;4421818;32;20120;-68
2022/04/27 04:45:12;;;;;;;1.05;0.62;;;9.70;99.90;;;;;;4419968;32;20118;-68
2022/04/27 04:47:38;;;;;;;0.40;0.40;;;9.70;99.90;;;;;;4424285;32;20124;-68
2022/04/27 04:50:05;;;;;;;0.40;0.40;;;9.80;99.90;;;;;;4413761;32;20073;-68
2022/04/27 04:52:30;;;;;;;0.55;0.55;;;9.80;99.90;;;;;;4397997;32;20215;-68
2022/04/27 04:54:55;;;;;;;0.40;0.40;;;9.70;99.90;;;;;;4396814;32;20097;-68
2022/04/27 04:57:21;;;;;;;0.40;0.40;;;9.80;99.90;;;;;;4424666;32;20073;-68
2022/04/27 04:59:46;;;;;;;0.98;0.95;;;9.90;99.90;;;;;;4424435;32;20086;-68
2022/04/27 05:02:12;;;;;;;9.13;0.68;;;9.90;99.90;;;;;;4408476;32;20065;-68
2022/04/27 05:04:39;;;;;;;0.40;0.40;;;10.00;99.90;;;;;;4376218;32;20215;-68
2022/04/27 05:07:05;;;;;;;0.35;0.35;;;10.00;99.90;;;;;;4374915;32;20500;-68
2022/04/27 05:09:31;;;;;;;1.65;0.93;;;10.10;99.90;;;;;;4377482;32;20384;-68
2022/04/27 05:11:56;;;;;;;0.50;0.50;;;10.20;99.90;;;;;;4404303;32;20073;-68
2022/04/27 05:14:22;;;;;;;0.50;0.50;;;10.10;99.90;;;;;;4405768;32;20090;-68
2022/04/27 05:16:47;;;;;;;0.95;0.50;;;10.20;99.90;;;;;;4410666;32;20491;-68
2022/04/27 05:19:12;;;;;;;1.30;0.52;;;10.30;99.90;;;;;;4330760;32;20124;-68
2022/04/27 05:21:38;;;;;;;31.50;1.25;;;10.40;99.90;;;;;;4325222;32;20282;-68
2022/04/27 05:24:04;;;;;;;0.32;0.32;;;10.60;99.90;;;;;;4329088;32;20214;-68
2022/04/27 05:26:31;;;;;;;0.57;0.57;;;10.60;99.90;;;;;;4364427;32;20837;-69
2022/04/27 05:32:00;;;;;;;2.65;0.50;;;10.80;99.90;;;;;;4345191;32;20161;-69
2022/04/27 05:34:30;;;;;;;1.08;0.70;;;11.00;99.90;;;;;;4339494;32;20227;-69
2022/04/27 05:36:56;;;;;;;0.97;0.97;;;11.10;99.90;;;;;;4346578;32;20187;-67
2022/04/27 05:39:23;;;;;;;0.45;0.45;;;11.10;99.90;;;;;;4368666;32;20331;-67
2022/04/27 05:41:51;;;;;;;0.25;0.25;;;11.30;99.90;;;;;;4386339;32;20121;-69
2022/04/27 05:44:22;;;;;;;0.52;0.52;;;11.40;99.90;;;;;;4402018;32;20098;-67
2022/04/27 05:46:48;;;;;;;;;;;11.40;99.90;;;;;;4405244;32;20426;-67
2022/04/27 05:49:14;;;;;;;0.75;0.57;;;11.40;99.90;;;;;;4393404;32;19952;-68
2022/04/27 05:51:41;;;;;;;1.15;0.70;;;11.50;99.90;;;;;;4398659;32;20066;-67
2022/04/27 05:54:06;;;;;;;0.30;0.30;;;11.60;99.90;;;;;;4399956;32;20909;-68
2022/04/27 05:56:33;;;;;;;0.40;0.40;;;11.50;99.90;;;;;;4401609;32;20089;-67
2022/04/27 05:59:01;;;;;;;0.40;0.40;;;11.50;99.90;;;;;;4402484;32;20306;-66
2022/04/27 06:01:27;;;;;;;1.42;1.33;;;11.50;99.90;;;;;;4379608;32;20221;-67
2022/04/27 06:03:54;;;;;;;0.68;0.68;;;11.60;99.90;;;;;;4376562;32;20113;-67
2022/04/27 06:06:20;;;;;;;1.98;0.90;;;11.70;99.90;;;;;;4384488;32;20616;-67
2022/04/27 06:08:46;;;;;;;0.65;0.65;;;11.70;99.90;;;;;;4400000;32;20206;-67
2022/04/27 06:11:12;;;;;;;0.57;0.55;;;11.80;99.90;;;;;;4406001;32;20106;-67
2022/04/27 06:13:38;;;;;;;0.55;0.28;;;12.00;99.90;;;;;;4389053;32;20086;-67
2022/04/27 06:16:03;;;;;;;0.52;0.52;;;12.10;99.90;;;;;;4404329;32;20082;-67
2022/04/27 06:18:29;;;;;;;10.10;1.75;;;12.20;99.40;;;;;;4394054;32;20441;-68
2022/04/27 06:20:55;;;;;;;1.37;0.85;;;12.30;99.70;;;;;;4388760;32;20081;-68
2022/04/27 06:23:22;;;;;;;2.05;0.82;;;12.30;99.80;;;;;;4400348;32;20954;-67
2022/04/27 06:25:49;;;;;;;0.68;0.68;;;12.30;99.50;;;;;;4404144;32;20140;-68
2022/04/27 06:28:15;;;;;;;0.40;0.40;;;12.30;98.90;;;;;;4403923;32;20162;-67
2022/04/27 06:30:40;;;;;;;0.82;0.57;;;12.30;99.50;;;;;;4401060;32;20093;-67
2022/04/27 06:33:06;;;;;;;0.93;0.65;;;12.30;99.30;;;;;;4383066;32;20621;-66
2022/04/27 06:35:32;;;;;;;2.10;0.60;;;12.30;99.90;;;;;;4390495;32;20254;-67
2022/04/27 06:37:58;;;;;;;0.60;0.60;;;12.40;99.30;;;;;;4400681;32;20118;-68
2022/04/27 06:40:24;;;;;;;0.88;0.88;;;12.40;98.70;;;;;;4401686;32;20097;-68
2022/04/27 06:42:51;;;;;;;1.65;0.82;;;12.50;98.90;;;;;;4402352;32;20171;-68
2022/04/27 06:45:16;;;;;;;3.45;0.90;;;12.60;99.30;;;;;;4389416;32;20425;-68
2022/04/27 06:47:43;;;;;;;0.50;0.50;;;12.70;98.70;;;;;;4403590;32;20725;-68
2022/04/27 06:50:13;;;;;;;5.18;0.50;;;12.70;98.60;;;;;;4402504;32;20128;-68
2022/04/27 06:52:41;;;;;;;0.57;0.57;;;12.90;98.10;;;;;;4400679;32;20061;-66
2022/04/27 06:55:07;;;;;;;6.62;1.40;;;12.90;98.10;;;;;;4405112;32;20649;-67
2022/04/27 06:57:32;;;;;;;8.32;1.58;;;13.00;98.30;;;;;;4401157;32;20122;-67
2022/04/27 06:59:58;;;;;;;4.10;0.57;;;13.10;98.30;;;;;;4388618;32;20092;-67
2022/04/27 07:02:23;;;;;;;0.50;0.50;;;13.20;97.40;;;;;;4380465;32;20206;-67
2022/04/27 07:04:55;;;;;;;0.60;0.60;;;13.30;97.10;;;;;;4373126;32;20109;-68
2022/04/27 07:07:21;;;;;;;0.57;0.57;;;13.30;97.00;;;;;;4386880;32;20113;-67
2022/04/27 07:09:46;;;;;;;0.52;0.52;;;13.30;96.80;;;;;;4398986;32;20284;-67
2022/04/27 07:12:13;;;;;;;0.60;0.60;;;13.30;97.00;;;;;;4393464;32;20628;-67
2022/04/27 07:14:39;;;;;;;1.90;1.40;;;13.30;96.20;;;;;;4395011;32;20073;-66
2022/04/27 07:17:04;;;;;;;0.62;0.62;;;13.30;96.30;;;;;;4388176;32;20494;-67
2022/04/27 07:19:30;;;;;;;0.85;0.70;;;13.40;96.20;;;;;;4381096;32;20301;-67
2022/04/27 07:21:55;;;;;;;0.70;0.70;;;13.50;96.20;;;;;;4382362;32;20592;-67
2022/04/27 07:24:21;;;;;;;0.50;0.50;;;13.50;96.20;;;;;;4392833;32;20380;-67
2022/04/27 07:26:46;;;;;;;0.50;0.50;;;13.50;96.30;;;;;;4396274;32;20101;-67
2022/04/27 07:29:12;;;;;;;1.55;0.60;;;13.60;96.00;;;;;;4384620;32;20089;-67
2022/04/27 07:31:37;;;;;;;8.32;0.52;;;13.70;95.40;;;;;;4369215;32;21281;-67
2022/04/27 07:34:03;;;;;;;1.75;1.20;;;13.80;95.30;;;;;;4374970;32;20880;-66
2022/04/27 07:36:28;;;;;;;0.60;0.60;;;13.80;95.20;;;;;;4378777;32;105368;-69
2022/04/27 07:38:54;;;;;;;1.65;0.70;;;13.90;95.10;;;;;;4396650;32;20922;-66
2022/04/27 07:41:20;;;;;;;0.50;0.50;;;14.00;94.20;;;;;;4399079;32;20092;-66
2022/04/27 07:43:45;;;;;;;0.45;0.45;;;14.10;94.90;;;;;;4401949;32;20588;-67
2022/04/27 07:46:11;;;;;;;0.47;0.47;;;14.10;94.00;;;;;;4399584;32;20252;-66
2022/04/27 07:48:37;;;;;;;0.47;0.47;;;14.20;94.30;;;;;;4384591;32;20162;-68
2022/04/27 07:51:05;;;;;;;0.40;0.40;;;14.30;93.70;;;;;;4378367;32;20093;-68
2022/04/27 07:53:30;;;;;;;3.28;0.80;;;14.50;93.70;;;;;;4384290;32;20107;-69
2022/04/27 07:55:55;;;;;;;2.37;0.77;;;14.50;93.40;;;;;;4391004;32;20482;-68
2022/04/27 07:58:21;;;;;;;0.70;0.70;;;14.70;93.90;;;;;;4392364;32;20114;-69
2022/04/27 08:00:47;;;;;;;2.55;1.00;;;14.80;93.00;;;;;;4388145;32;20165;-69
2022/04/27 08:03:13;;;;;;;0.30;0.30;;;14.80;92.00;;;;;;4381462;32;20115;-69
2022/04/27 08:05:38;;;;;;;0.40;0.40;;;15.00;92.40;;;;;;4386180;32;20102;-69
2022/04/27 08:08:05;;;;;;;0.40;0.40;;;15.20;91.20;;;;;;4384583;32;20094;-69
2022/04/27 08:10:31;;;;;;;6.45;1.95;;;15.30;91.60;;;;;;4391747;32;20472;-69
2022/04/27 08:12:57;;;;;;;0.50;0.45;;;15.20;91.70;;;;;;4396413;32;20065;-68
2022/04/27 08:15:24;;;;;;;0.43;0.40;;;15.30;90.60;;;;;;4399872;32;20090;-68
2022/04/27 08:17:56;;;;;;;0.80;0.80;;;15.30;90.40;;;;;;4394968;32;20081;-68
2022/04/27 08:21:27;;;;;;;8.77;0.70;;;15.40;91.10;;;;;;4390118;32;20119;-69
2022/04/27 08:23:11;;;;;;;0.40;0.40;;;15.50;90.40;;;;;;4388357;32;20871;-69
2022/04/27 08:25:37;;;;;;;0.50;0.50;;;15.50;90.60;;;;;;4394354;32;20207;-69
2022/04/27 08:28:06;;;;;;;0.45;0.45;;;15.60;88.70;;;;;;4395470;32;21081;-69
2022/04/27 08:30:33;;;;;;;0.25;0.25;;;15.60;87.70;;;;;;4379502;32;20070;-69
2022/04/27 08:33:00;;;;;;;0.75;0.50;;;15.80;88.70;;;;;;4382065;32;20421;-70
2022/04/27 08:35:27;;;;;;;1.17;0.62;;;15.80;85.70;;;;;;4386534;32;21261;-69
2022/04/27 08:37:52;;;;;;;0.68;0.68;;;15.80;85.10;;;;;;4389564;32;20167;-70
2022/04/27 08:40:18;;;;;;;0.50;0.50;;;15.70;85.80;;;;;;4389460;32;20176;-70
2022/04/27 08:42:44;;;;;;;2.35;0.73;;;15.80;82.90;;;;;;4391937;32;20081;-69
2022/04/27 08:45:10;;;;;;;0.40;0.40;;;15.90;84.40;;;;;;4388368;32;20288;-69
2022/04/27 08:47:36;;;;;;;0.75;0.70;;;15.90;83.50;;;;;;4393127;32;20935;-69
2022/04/27 08:50:19;;;;;;;0.50;0.50;;;15.90;83.20;;;;;;4388577;32;20096;-70
2022/04/27 08:52:45;;;;;;;2.72;1.02;;;16.20;82.60;;;;;;4392133;32;20478;-69
2022/04/27 08:55:13;;;;;;;0.30;0.30;;;16.30;81.90;;;;;;4396784;32;20242;-69
2022/04/27 08:57:40;;;;;;;0.25;0.25;;;16.40;81.20;;;;;;4398156;32;20697;-70
2022/04/27 09:00:09;;;;;;;0.40;0.40;;;16.40;81.50;;;;;;4387630;32;22117;-69
2022/04/27 09:02:35;;;;;;;0.70;0.70;;;16.50;79.00;;;;;;4390888;32;20082;-68
2022/04/27 09:05:12;;;;;;;0.50;0.50;;;16.70;79.50;;;;;;4382068;32;20118;-70
2022/04/27 09:07:42;;;;;;;0.20;0.20;;;16.60;77.00;;;;;;4393960;32;20112;-70
2022/04/27 09:10:11;;;;;;;4.22;0.60;;;16.80;78.50;;;;;;4400019;32;20062;-68
2022/04/27 09:12:46;;;;;;;1.40;0.90;;;17.00;78.40;;;;;;4400947;32;20575;-68
2022/04/27 09:15:12;;;;;;;0.93;0.55;;;16.80;78.00;;;;;;4404118;32;20639;-69
2022/04/27 09:20:57;;;;;;;0.22;0.22;;;16.90;76.90;;;;;;4391132;32;20348;-68
2022/04/27 09:23:39;;;;;;;0.62;0.50;;;17.20;73.50;;;;;;4373741;32;20085;-67
2022/04/27 09:26:22;;;;;;;0.62;0.62;;;17.20;74.50;;;;;;4376985;32;20168;-68
2022/04/27 09:28:50;;;;;;;1.17;0.52;;;17.30;71.10;;;;;;4375235;32;20125;-68
2022/04/27 09:31:32;;;;;;;0.45;0.40;;;17.10;71.70;;;;;;4379861;32;21681;-67
2022/04/27 09:34:03;;;;;;;0.25;0.25;;;17.20;73.60;;;;;;4377084;32;21420;-66
2022/04/27 09:36:29;;;;;;;0.30;0.30;;;17.40;69.50;;;;;;4394091;32;20100;-67
2022/04/27 09:38:57;;;;;;;0.52;0.40;;;17.70;72.00;;;;;;4403444;32;20302;-68
2022/04/27 09:41:45;;;;;;;0.37;0.37;;;18.00;70.00;;;;;;4398501;32;20119;-68
2022/04/27 09:44:28;;;;;;;0.32;0.32;;;18.10;71.40;;;;;;4391965;32;20552;-69
2022/04/27 09:46:54;;;;;;;0.35;0.32;;;18.40;67.80;;;;;;4399129;32;20076;-68
2022/04/27 09:49:20;;;;;;;0.60;0.60;;;18.60;68.50;;;;;;4396226;32;20933;-68
2022/04/27 09:51:54;;;;;;;0.50;0.50;;;18.60;67.70;;;;;;4389499;32;20397;-68
2022/04/27 09:54:23;;;;;;;0.90;0.65;;;18.70;66.70;;;;;;4390866;32;20080;-68
2022/04/27 09:56:54;;;;;;;0.30;0.30;;;18.80;66.50;;;;;;4403090;32;20424;-68
2022/04/27 09:59:27;;;;;;;0.30;0.30;;;18.60;66.90;;;;;;4395690;32;20841;-69
2022/04/27 10:01:55;;;;;;;0.35;0.35;;;18.50;66.90;;;;;;4402699;32;20085;-68
2022/04/27 10:04:24;;;;;;;0.30;0.30;;;18.50;66.00;;;;;;4392905;32;20151;-68
2022/04/27 10:06:51;;;;;;;0.30;0.30;;;18.70;68.00;;;;;;4407125;32;20084;-68
2022/04/27 10:09:16;;;;;;;0.60;0.60;;;19.00;66.20;;;;;;4402832;32;20138;-68
2022/04/27 10:11:43;;;;;;;0.40;0.40;;;19.00;64.00;;;;;;4406648;32;20085;-68
2022/04/27 10:14:09;;;;;;;1.45;0.95;;;18.80;64.90;;;;;;4385452;32;20247;-66
2022/04/27 10:16:35;;;;;;;0.30;0.30;;;19.30;64.10;;;;;;4392863;32;20444;-68
2022/04/27 10:19:01;;;;;;;0.30;0.30;;;19.80;62.10;;;;;;4389441;32;21249;-66
2022/04/27 10:21:56;;;;;;;0.35;0.35;;;19.90;61.40;;;;;;4375510;32;20198;-67
2022/04/27 10:24:46;;;;;;;0.30;0.30;;;20.10;62.50;;;;;;4381931;32;20106;-69
2022/04/27 10:27:33;;;;;;;0.67;0.67;;;20.30;61.40;;;;;;4380429;32;20181;-67
2022/04/27 10:30:03;;;;;;;0.40;0.40;;;20.30;63.20;;;;;;4374429;32;20247;-68
2022/04/27 10:32:46;;;;;;;0.43;0.43;;;20.10;62.90;;;;;;4402864;32;21186;-69
2022/04/27 10:35:17;;;;;;;0.40;0.40;;;19.40;62.50;;;;;;4405056;32;20053;-69
2022/04/27 10:37:47;;;;;;;0.28;0.28;;;19.20;66.80;;;;;;4411469;32;20102;-69
2022/04/27 10:40:34;;;;;;;0.30;0.30;;;19.90;61.70;;;;;;4408628;32;20113;-69
2022/04/27 10:43:10;;;;;;;0.40;0.40;;;19.90;60.40;;;;;;4397302;32;20283;-67
2022/04/27 10:45:39;;;;;;;0.40;0.40;;;20.10;59.40;;;;;;4401671;32;20322;-68
2022/04/27 10:48:07;;;;;;;0.40;0.40;;;20.00;59.50;;;;;;4398089;32;20159;-69
2022/04/27 10:50:34;;;;;;;0.40;0.40;;;20.40;60.00;;;;;;4396811;32;20364;-66
2022/04/27 10:53:16;;;;;;;0.40;0.40;;;20.70;60.80;;;;;;4388279;32;20305;-66
2022/04/27 10:55:43;;;;;;;0.50;0.50;;;21.00;58.20;;;;;;4385816;32;20089;-66
2022/04/27 10:58:13;;;;;;;6.22;1.85;;;21.10;58.60;;;;;;4401489;32;20858;-66
2022/04/27 11:01:01;;;;;;;0.30;0.30;;;21.50;56.20;;;;;;4400328;32;20152;-66
2022/04/27 11:03:28;;;;;;;0.37;0.37;;;21.50;58.10;;;;;;4384016;32;20329;-67
2022/04/27 11:05:57;;;;;;;0.30;0.30;;;21.10;58.20;;;;;;4402171;32;20201;-68
2022/04/27 11:08:42;;;;;;;0.30;0.30;;;20.60;58.30;;;;;;4406990;32;20109;-67
2022/04/27 11:11:09;;;;;;;0.28;0.28;;;20.20;58.70;;;;;;4397792;32;20150;-66
2022/04/27 11:13:36;;;;;;;0.20;0.20;;;20.30;59.00;;;;;;4397622;32;20196;-66
2022/04/27 11:16:10;;;;;;;2.35;0.85;;;20.80;59.30;;;;;;4392902;32;20097;-66
2022/04/27 11:18:57;;;;;;;0.30;0.30;;;21.40;59.70;;;;;;4393789;32;20564;-66
2022/04/27 11:21:26;;;;;;;0.45;0.45;;;21.60;56.80;;;;;;4381382;32;20112;-67
2022/04/27 11:23:53;;;;;;;0.30;0.30;;;21.80;57.30;;;;;;4398711;32;20089;-67
2022/04/27 11:26:18;;;;;;;0.22;0.22;;;21.80;57.10;;;;;;4385945;32;20603;-67
2022/04/27 11:28:45;;;;;;;0.30;0.30;;;21.90;57.90;;;;;;4401464;32;20309;-67
2022/04/27 11:31:12;;;;;;;0.43;0.43;;;21.60;56.80;;;;;;4393475;32;21233;-67
2022/04/27 11:33:40;;;;;;;0.20;0.20;;;21.40;56.60;;;;;;4389611;32;20160;-67
2022/04/27 11:36:19;;;;;;;0.50;0.50;;;21.40;56.10;;;;;;4400529;32;20572;-67
2022/04/27 11:38:45;;;;;;;0.35;0.35;;;21.40;55.70;;;;;;4392591;32;20422;-67
2022/04/27 11:41:15;;;;;;;0.30;0.30;;;20.90;57.30;;;;;;4385976;32;20412;-67
2022/04/27 11:43:41;;;;;;;0.30;0.30;;;20.40;56.80;;;;;;4380727;32;20595;-67
2022/04/27 11:46:10;;;;;;;0.20;0.20;;;21.10;59.60;;;;;;4369200;32;20306;-67
2022/04/27 11:48:36;;;;;;;0.90;0.43;;;22.10;55.70;;;;;;4380303;32;21133;-67
2022/04/27 11:51:02;;;;;;;0.20;0.20;;;22.40;54.90;;;;;;4390258;32;20096;-66
2022/04/27 11:53:28;;;;;;;0.62;0.50;;;22.70;53.70;;;;;;4380173;32;20414;-67
2022/04/27 11:55:55;;;;;;;0.98;0.40;;;22.60;54.30;;;;;;4388153;32;20584;-68
2022/04/27 11:58:23;;;;;;;0.30;0.30;;;22.70;54.90;;;;;;4397570;32;20072;-67
2022/04/27 12:00:53;;;;;;;0.40;0.40;;;21.70;56.90;;;;;;4401261;32;20089;-68
2022/04/27 12:03:18;;;;;;;4.65;0.28;;;22.10;57.10;;;;;;4385719;32;20156;-67
2022/04/27 12:05:50;;;;;;;0.22;0.22;;;22.30;57.10;;;;;;4393488;32;21098;-68
2022/04/27 12:08:19;;;;;;;0.20;0.20;;;23.20;56.40;;;;;;4403047;32;20167;-69
2022/04/27 12:10:46;;;;;;;0.20;0.20;;;23.30;53.70;;;;;;4397960;32;20717;-69
2022/04/27 12:13:14;;;;;;;0.55;0.45;;;22.30;55.50;;;;;;4400813;32;20109;-69
2022/04/27 12:15:43;;;;;;;0.30;0.30;;;21.30;57.20;;;;;;4390958;32;21265;-68
2022/04/27 12:18:18;;;;;;;0.22;0.22;;;20.80;56.50;;;;;;4386201;32;20327;-68
2022/04/27 12:20:46;;;;;;;0.22;0.22;;;21.20;56.60;;;;;;4401370;32;20312;-69
2022/04/27 12:23:14;;;;;;;0.37;0.30;;;22.20;54.70;;;;;;4398907;32;20401;-69
2022/04/27 12:25:42;;;;;;;0.30;0.22;;;23.00;54.00;;;;;;4396573;32;20296;-69
2022/04/27 12:28:11;;;;;;;0.20;0.20;;;23.30;53.00;;;;;;4387292;32;20145;-69
2022/04/27 12:30:48;;;;;;;0.30;0.30;;;22.60;53.00;;;;;;4383828;32;21162;-69
2022/04/27 12:33:17;;;;;;;0.10;0.10;;;22.40;53.70;;;;;;4382304;32;20085;-69
2022/04/27 12:37:45;;;;;;;0.30;0.30;;;22.30;54.10;;;;;;4391232;32;20120;-69
2022/04/27 12:38:30;;;;;;;0.30;0.30;;;22.60;54.00;;;;;;4390540;32;20090;-69
2022/04/27 12:40:58;;;;;;;0.30;0.30;;;22.40;53.00;;;;;;4408836;32;20089;-68
2022/04/27 12:43:24;;;;;;;0.30;0.30;;;22.00;54.80;;;;;;4411122;32;20056;-69
2022/04/27 12:46:07;;;;;;;0.20;0.20;;;22.20;55.00;;;;;;4416802;32;20102;-69
2022/04/27 12:48:35;;;;;;;0.10;0.10;;;22.90;53.20;;;;;;4400827;32;20139;-70
2022/04/27 12:51:01;;;;;;;0.10;0.10;;;23.60;53.90;;;;;;4405594;32;20207;-68
2022/04/27 12:53:27;;;;;;;0.10;0.10;;;23.90;51.70;;;;;;4390695;32;20077;-68
2022/04/27 12:56:02;;;;;;;0.20;0.20;;;24.50;50.90;;;;;;4401225;32;20056;-68
2022/04/27 12:58:28;;;;;;;0.25;0.25;;;24.80;50.70;;;;;;4418290;32;20539;-69
2022/04/27 13:00:53;;;;;;;0.10;0.10;;;25.10;50.50;;;;;;4407410;32;20174;-69